createdAt,value
2019-04-21T00:00:23.740Z,16.25
2019-04-21T00:01:17.015Z,16.31
2019-04-21T00:02:03.680Z,16.31
2019-04-21T00:17:31.345Z,16.37
2019-04-21T00:18:17.489Z,16.37
2019-04-21T00:19:36.884Z,16.37
2019-04-21T00:34:02.884Z,16.37
2019-04-21T00:35:42.744Z,16.37
2019-04-21T01:20:18.636Z,15.5
2019-04-21T01:21:14.880Z,15.56
2019-04-21T01:22:02.437Z,15.56
2019-04-21T01:23:02.568Z,15.56
2019-04-21T09:30:11.052Z,19.75
2019-04-21T09:31:12.368Z,19.81
2019-04-21T09:32:34.937Z,19.75
2019-04-21T09:33:07.630Z,19.81
2019-04-21T09:34:38.386Z,19.81
2019-04-21T09:35:22.329Z,19.81
2019-04-21T09:36:37.700Z,19.87
2019-04-21T09:39:32.955Z,20
2019-04-21T09:40:06.950Z,20
2019-04-21T09:41:26.282Z,20
2019-04-21T09:42:06.851Z,20.06
2019-04-21T09:43:45.108Z,20.12
2019-04-21T09:44:37.074Z,20.19
2019-04-21T09:45:16.061Z,20.19
2019-04-21T09:46:02.130Z,20.19
2019-04-21T09:47:17.546Z,20.25
2019-04-21T09:48:26.691Z,20.31
2019-04-21T09:49:31.600Z,20.31
2019-04-21T09:50:13.490Z,20.37
2019-04-21T09:51:02.274Z,20.37
2019-04-21T09:53:44.673Z,20.56
2019-04-21T09:54:48.056Z,20.62
2019-04-21T09:55:48.620Z,20.56
2019-04-21T10:03:23.061Z,20.81
2019-04-21T10:04:06.050Z,20.88
2019-04-21T10:05:02.274Z,20.94
2019-04-21T10:06:01.783Z,21
2019-04-21T10:07:02.763Z,21
2019-04-21T10:08:01.780Z,21
2019-04-21T10:09:21.998Z,21
2019-04-21T10:10:03.929Z,21
2019-04-21T10:11:03.562Z,21
2019-04-21T10:12:03.313Z,21
2019-04-21T10:13:05.237Z,21
2019-04-21T10:14:03.469Z,20.94
2019-04-21T10:15:02.197Z,21
2019-04-21T10:16:03.349Z,21.06
2019-04-21T10:17:04.891Z,21.19
2019-04-21T10:18:02.968Z,21.31
2019-04-21T10:19:02.765Z,21.31
2019-04-21T10:20:03.442Z,21.37
2019-04-21T10:21:01.734Z,21.44
2019-04-21T10:22:06.177Z,21.44
2019-04-21T10:23:03.189Z,21.44
2019-04-21T10:24:02.294Z,21.44
2019-04-21T10:25:03.219Z,21.5
2019-04-21T10:26:01.689Z,21.5
2019-04-21T10:27:14.860Z,21.56
2019-04-21T10:28:03.439Z,21.56
2019-04-21T10:30:02.132Z,21.56
2019-04-21T10:31:02.965Z,21.62
2019-04-21T10:32:01.830Z,21.62
2019-04-21T10:33:01.783Z,21.87
2019-04-21T10:34:03.426Z,21.94
2019-04-21T10:35:01.762Z,21.94
2019-04-21T10:36:01.861Z,21.94
2019-04-21T10:37:03.072Z,22.06
2019-04-21T10:39:05.729Z,22.13
2019-04-21T10:40:01.758Z,22.19
2019-04-21T10:41:01.786Z,22.19
2019-04-21T10:42:01.783Z,22.19
2019-04-21T10:43:01.876Z,22.19
2019-04-21T10:44:03.321Z,22.37
2019-04-21T10:45:03.497Z,22.44
2019-04-21T10:46:01.667Z,22.44
2019-04-21T10:47:02.948Z,22.5
2019-04-21T10:48:03.319Z,22.44
2019-04-21T10:49:01.735Z,22.56
2019-04-21T10:50:03.041Z,22.62
2019-04-21T10:51:01.659Z,22.62
2019-04-21T10:52:01.700Z,22.62
2019-04-21T10:53:03.183Z,22.69
2019-04-21T10:54:02.195Z,22.62
2019-04-21T10:57:02.255Z,22.75
2019-04-21T10:58:02.505Z,22.75
2019-04-21T10:59:02.750Z,22.81
2019-04-21T11:00:01.830Z,22.75
2019-04-21T11:01:02.182Z,22.75
2019-04-21T11:02:03.333Z,22.75
2019-04-21T11:03:02.462Z,22.75
2019-04-21T11:04:02.999Z,22.75
2019-04-21T11:05:03.185Z,22.81
2019-04-21T11:06:03.605Z,22.87
2019-04-21T11:07:36.058Z,22.87
2019-04-21T11:09:10.971Z,23
2019-04-21T11:10:04.351Z,23
2019-04-21T11:11:02.019Z,23.06
2019-04-21T11:12:02.293Z,23.06
2019-04-21T11:13:03.060Z,23.12
2019-04-21T11:14:02.698Z,23.12
2019-04-21T11:15:01.648Z,23.19
2019-04-21T11:16:01.703Z,23.31
2019-04-21T11:17:01.824Z,23.38
2019-04-21T11:18:01.980Z,23.38
2019-04-21T11:19:02.305Z,23.44
2019-04-21T11:20:01.695Z,23.5
2019-04-21T11:21:03.293Z,23.5
2019-04-21T11:22:03.190Z,23.56
2019-04-21T11:23:02.172Z,23.56
2019-04-21T11:24:02.145Z,23.56
2019-04-21T11:25:03.269Z,23.56
2019-04-21T11:26:02.489Z,23.62
2019-04-21T11:27:02.095Z,23.62
2019-04-21T11:28:03.193Z,23.69
2019-04-21T11:29:03.362Z,23.75
2019-04-21T11:30:02.588Z,23.75
2019-04-21T11:31:02.892Z,23.81
2019-04-21T11:32:03.206Z,23.87
2019-04-21T11:33:01.648Z,23.87
2019-04-21T11:34:03.251Z,23.87
2019-04-21T11:35:01.696Z,23.94
2019-04-21T11:36:01.676Z,23.94
2019-04-21T11:37:02.183Z,24
2019-04-21T11:38:33.587Z,24
2019-04-21T11:40:23.954Z,24.19
2019-04-21T11:41:01.747Z,24.19
2019-04-21T11:42:01.977Z,24.12
2019-04-21T11:43:02.171Z,24.19
2019-04-21T11:44:01.708Z,24.19
2019-04-21T11:45:01.725Z,24.19
2019-04-21T11:46:04.737Z,24.25
2019-04-21T11:47:02.812Z,24.25
2019-04-21T11:48:01.634Z,24.25
2019-04-21T11:49:04.223Z,24.31
2019-04-21T11:50:03.454Z,24.31
2019-04-21T11:51:01.709Z,24.31
2019-04-21T11:52:03.153Z,24.31
2019-04-21T11:53:03.255Z,24.31
2019-04-21T11:54:01.712Z,24.37
2019-04-21T11:55:02.998Z,24.37
2019-04-21T11:56:03.103Z,24.44
2019-04-21T11:58:01.603Z,24.44
2019-04-21T11:59:02.006Z,24.44
2019-04-21T12:00:02.206Z,24.44
2019-04-21T12:01:03.631Z,24.44
2019-04-21T12:02:01.830Z,24.44
2019-04-21T12:03:01.819Z,24.5
2019-04-21T12:04:01.619Z,24.5
2019-04-21T12:05:01.642Z,24.5
2019-04-21T12:06:01.831Z,24.56
2019-04-21T12:07:02.124Z,24.63
2019-04-21T12:08:02.301Z,24.69
2019-04-21T12:09:12.019Z,24.69
2019-04-21T12:10:02.035Z,24.75
2019-04-21T12:11:01.634Z,24.81
2019-04-21T12:12:01.767Z,24.75
2019-04-21T12:13:07.661Z,24.81
2019-04-21T12:14:01.641Z,24.87
2019-04-21T12:15:02.247Z,24.87
2019-04-21T12:16:03.009Z,24.94
2019-04-21T12:17:02.877Z,24.81
2019-04-21T12:18:02.003Z,24.75
2019-04-21T12:19:03.189Z,24.69
2019-04-21T12:20:03.438Z,24.69
2019-04-21T12:21:01.583Z,24.69
2019-04-21T12:22:35.685Z,24.69
2019-04-21T12:23:02.666Z,24.81
2019-04-21T12:24:02.886Z,24.87
2019-04-21T12:25:03.214Z,24.87
2019-04-21T12:26:01.645Z,24.94
2019-04-21T12:27:02.554Z,25
2019-04-21T12:28:01.925Z,25
2019-04-21T12:29:02.150Z,25.06
2019-04-21T12:30:03.931Z,25.12
2019-04-21T12:31:01.635Z,25.12
2019-04-21T12:32:01.669Z,25.19
2019-04-21T12:33:02.687Z,25.19
2019-04-21T12:34:01.612Z,25.19
2019-04-21T12:35:02.151Z,25.19
2019-04-21T12:36:02.182Z,25.25
2019-04-21T12:37:01.593Z,25.25
2019-04-21T12:38:03.010Z,25.25
2019-04-21T12:39:12.770Z,25.31
2019-04-21T12:40:03.596Z,25.31
2019-04-21T12:41:02.613Z,25.25
2019-04-21T12:42:02.896Z,25.25
2019-04-21T12:43:03.107Z,25.31
2019-04-21T12:44:02.787Z,25.37
2019-04-21T12:45:01.784Z,25.44
2019-04-21T12:46:02.513Z,25.56
2019-04-21T12:47:01.953Z,25.62
2019-04-21T12:48:02.395Z,25.69
2019-04-21T12:49:02.443Z,25.69
2019-04-21T12:50:03.032Z,25.81
2019-04-21T12:51:02.048Z,25.81
2019-04-21T12:52:02.214Z,25.81
2019-04-21T12:53:01.598Z,25.88
2019-04-21T12:54:01.846Z,25.88
2019-04-21T12:55:02.136Z,25.88
2019-04-21T12:56:05.308Z,25.88
2019-04-21T12:57:01.553Z,25.88
2019-04-21T12:58:01.656Z,25.94
2019-04-21T12:59:01.809Z,25.94
2019-04-21T13:00:03.138Z,26
2019-04-21T13:01:03.091Z,26
2019-04-21T13:02:01.611Z,26.06
2019-04-21T13:03:01.925Z,26.06
2019-04-21T13:04:02.155Z,26.12
2019-04-21T13:05:02.394Z,26.06
2019-04-21T13:06:01.730Z,26.06
2019-04-21T13:07:01.710Z,26.06
2019-04-21T13:08:01.854Z,26.12
2019-04-21T13:09:22.189Z,26.12
2019-04-21T13:10:02.575Z,26.19
2019-04-21T13:11:02.590Z,26.25
2019-04-21T13:12:01.742Z,26.31
2019-04-21T13:13:02.044Z,26.31
2019-04-21T13:14:02.146Z,26.37
2019-04-21T13:15:04.513Z,26.31
2019-04-21T13:16:01.550Z,26.25
2019-04-21T13:17:01.715Z,26.25
2019-04-21T13:18:02.972Z,26.31
2019-04-21T13:19:03.063Z,26.31
2019-04-21T13:20:01.639Z,26.37
2019-04-21T13:21:07.449Z,26.37
2019-04-21T13:22:01.860Z,26.37
2019-04-21T13:23:02.246Z,26.31
2019-04-21T13:24:01.525Z,26.12
2019-04-21T13:25:02.728Z,26.19
2019-04-21T13:26:11.502Z,26.19
2019-04-21T13:27:12.865Z,26.25
2019-04-21T13:28:03.129Z,26.31
2019-04-21T13:29:02.951Z,26.31
2019-04-21T13:30:02.544Z,26.44
2019-04-21T13:31:02.532Z,26.5
2019-04-21T13:32:12.699Z,26.56
2019-04-21T13:33:03.336Z,26.62
2019-04-21T13:34:02.424Z,26.62
2019-04-21T13:35:03.509Z,26.69
2019-04-21T13:36:04.538Z,26.69
2019-04-21T13:37:01.865Z,26.75
2019-04-21T13:38:02.976Z,26.75
2019-04-21T13:43:12.636Z,26.87
2019-04-21T13:44:01.548Z,26.94
2019-04-21T13:45:12.036Z,27
2019-04-21T13:46:02.072Z,27.06
2019-04-21T13:47:02.972Z,27.06
2019-04-21T13:48:01.526Z,27.13
2019-04-21T13:49:01.546Z,26.69
2019-04-21T13:50:09.067Z,26.5
2019-04-21T13:51:01.765Z,26.56
2019-04-21T13:52:02.897Z,26.56
2019-04-21T13:53:03.007Z,26.62
2019-04-21T13:54:02.160Z,26.69
2019-04-21T13:55:01.601Z,26.75
2019-04-21T13:56:02.867Z,26.81
2019-04-21T13:57:03.072Z,26.87
2019-04-21T13:58:02.310Z,26.87
2019-04-21T13:59:02.478Z,26.94
2019-04-21T14:00:01.756Z,27
2019-04-21T14:01:01.550Z,27.06
2019-04-21T14:02:02.881Z,27
2019-04-21T14:03:04.864Z,27.06
2019-04-21T14:04:02.201Z,27
2019-04-21T14:05:01.570Z,27
2019-04-21T14:06:02.826Z,27.13
2019-04-21T14:07:02.722Z,27.13
2019-04-21T14:08:03.407Z,27.13
2019-04-21T14:09:01.547Z,27.19
2019-04-21T14:10:17.841Z,27.06
2019-04-21T14:11:01.948Z,27.13
2019-04-21T14:12:01.573Z,27.13
2019-04-21T14:13:02.835Z,27.25
2019-04-21T14:14:02.873Z,27.31
2019-04-21T14:15:04.037Z,27.37
2019-04-21T14:16:02.378Z,27.25
2019-04-21T14:17:08.579Z,27.25
2019-04-21T14:18:03.089Z,27.37
2019-04-21T14:19:01.716Z,27.44
2019-04-21T14:20:01.778Z,27.5
2019-04-21T14:21:01.451Z,27.44
2019-04-21T14:22:01.472Z,27.5
2019-04-21T14:24:01.553Z,27.31
2019-04-21T14:25:02.058Z,27.25
2019-04-21T14:26:01.947Z,27.37
2019-04-21T14:27:02.902Z,27.44
2019-04-21T14:28:02.290Z,27.5
2019-04-21T14:29:01.798Z,27.37
2019-04-21T14:30:04.516Z,27.56
2019-04-21T14:31:02.525Z,27.62
2019-04-21T14:32:02.318Z,27.62
2019-04-21T14:33:02.624Z,27.69
2019-04-21T14:34:01.961Z,27.62
2019-04-21T14:35:03.257Z,27.44
2019-04-21T14:36:03.001Z,27.25
2019-04-21T14:37:02.777Z,27.13
2019-04-21T14:38:02.929Z,27.25
2019-04-21T14:39:03.033Z,27.37
2019-04-21T14:40:31.750Z,27.5
2019-04-21T14:41:02.567Z,27.5
2019-04-21T14:42:02.493Z,27.62
2019-04-21T14:43:02.940Z,27.69
2019-04-21T14:44:03.122Z,27.81
2019-04-21T14:45:04.994Z,27.87
2019-04-21T14:46:03.110Z,28
2019-04-21T14:47:03.137Z,28.06
2019-04-21T14:48:02.825Z,28.06
2019-04-21T14:49:01.619Z,28.19
2019-04-21T14:50:03.216Z,27.94
2019-04-21T14:51:02.482Z,27.75
2019-04-21T14:52:02.981Z,27.75
2019-04-21T14:53:03.504Z,27.75
2019-04-21T14:54:01.946Z,27.81
2019-04-21T14:55:03.086Z,27.56
2019-04-21T14:56:01.642Z,27.69
2019-04-21T14:57:01.485Z,27.56
2019-04-21T14:58:01.427Z,27.56
2019-04-21T14:59:09.141Z,27.69
2019-04-21T15:00:03.208Z,27.56
2019-04-21T15:01:02.366Z,27.62
2019-04-21T15:02:05.824Z,27.69
2019-04-21T15:03:03.904Z,27.81
2019-04-21T15:04:01.810Z,27.62
2019-04-21T15:05:04.174Z,27.69
2019-04-21T15:06:01.513Z,27.75
2019-04-21T15:07:01.706Z,27.81
2019-04-21T15:08:01.715Z,27.62
2019-04-21T15:09:02.883Z,27.5
2019-04-21T15:10:33.924Z,27.56
2019-04-21T15:11:01.571Z,27.69
2019-04-21T15:12:02.615Z,27.87
2019-04-21T15:13:01.841Z,28
2019-04-21T15:14:02.391Z,28.12
2019-04-21T15:15:02.456Z,28.19
2019-04-21T15:16:02.943Z,28.25
2019-04-21T15:17:03.064Z,28.19
2019-04-21T15:18:02.126Z,28.06
2019-04-21T15:19:02.662Z,27.94
2019-04-21T15:20:23.187Z,27.94
2019-04-21T15:21:01.738Z,28
2019-04-21T15:22:02.881Z,28.12
2019-04-21T15:23:02.375Z,28.12
2019-04-21T15:24:02.728Z,28.25
2019-04-21T15:25:03.104Z,28.38
2019-04-21T15:26:02.212Z,28.44
2019-04-21T15:27:01.422Z,28.5
2019-04-21T15:28:01.402Z,28.38
2019-04-21T15:29:02.935Z,28.12
2019-04-21T15:30:04.952Z,28.19
2019-04-21T15:31:03.172Z,28.25
2019-04-21T15:32:04.489Z,28.19
2019-04-21T15:33:02.601Z,28.25
2019-04-21T15:34:01.580Z,28.31
2019-04-21T15:35:04.298Z,28.5
2019-04-21T15:36:03.092Z,28.44
2019-04-21T15:37:02.214Z,28.38
2019-04-21T15:38:02.354Z,28.44
2019-04-21T15:39:01.756Z,28.5
2019-04-21T15:41:12.760Z,28.5
2019-04-21T15:42:02.875Z,28.38
2019-04-21T15:43:02.646Z,28.19
2019-04-21T15:44:10.089Z,27.94
2019-04-21T15:45:03.125Z,27.87
2019-04-21T15:46:02.932Z,27.94
2019-04-21T15:47:02.294Z,28.06
2019-04-21T15:48:02.462Z,28.12
2019-04-21T15:49:03.004Z,28.12
2019-04-21T15:50:24.498Z,28.19
2019-04-21T15:51:11.337Z,28.25
2019-04-21T15:52:02.262Z,28.25
2019-04-21T15:53:01.639Z,28.38
2019-04-21T15:54:06.955Z,28.25
2019-04-21T15:55:03.380Z,28.12
2019-04-21T15:56:02.764Z,28.12
2019-04-21T15:57:05.069Z,28.06
2019-04-21T15:58:02.890Z,27.81
2019-04-21T15:59:01.495Z,27.37
2019-04-21T16:00:02.999Z,27.31
2019-04-21T16:01:02.997Z,27.31
2019-04-21T16:02:01.486Z,27.06
2019-04-21T16:03:02.853Z,27.31
2019-04-21T16:04:08.185Z,27.44
2019-04-21T16:05:01.443Z,27.56
2019-04-21T16:06:01.628Z,27.37
2019-04-21T16:07:01.870Z,27.25
2019-04-21T16:08:03.768Z,27.19
2019-04-21T16:09:14.167Z,27.25
2019-04-21T16:10:41.217Z,27.31
2019-04-21T16:11:11.615Z,27.37
2019-04-21T16:12:02.134Z,27.5
2019-04-21T16:13:01.762Z,27.44
2019-04-21T16:14:03.870Z,27.44
2019-04-21T16:15:05.036Z,27.56
2019-04-21T16:16:02.427Z,27.37
2019-04-21T16:17:01.491Z,27.25
2019-04-21T16:18:01.886Z,26.94
2019-04-21T16:19:01.362Z,26.81
2019-04-21T16:20:05.997Z,26.81
2019-04-21T16:21:09.656Z,26.87
2019-04-21T16:22:03.256Z,27
2019-04-21T16:23:02.586Z,27.06
2019-04-21T16:24:02.854Z,27.25
2019-04-21T16:25:03.482Z,27.25
2019-04-21T16:26:04.602Z,27.19
2019-04-21T16:27:12.878Z,27.19
2019-04-21T16:28:01.809Z,27.31
2019-04-21T16:29:03.117Z,27.31
2019-04-21T16:30:04.000Z,27.37
2019-04-21T16:31:02.778Z,27.44
2019-04-21T16:32:01.913Z,27.44
2019-04-21T16:33:02.193Z,27.44
2019-04-21T16:34:01.350Z,27.37
2019-04-21T16:35:19.676Z,27.31
2019-04-21T16:36:02.376Z,27.13
2019-04-21T16:37:01.757Z,27.13
2019-04-21T16:38:06.271Z,27
2019-04-21T16:39:02.087Z,27
2019-04-21T16:40:01.577Z,26.87
2019-04-21T16:41:12.383Z,26.69
2019-04-21T16:42:02.831Z,26.62
2019-04-21T16:43:02.303Z,26.62
2019-04-21T16:44:01.349Z,26.31
2019-04-21T16:45:01.348Z,26.37
2019-04-21T16:46:01.570Z,26.44
2019-04-21T16:47:01.596Z,26.37
2019-04-21T16:48:01.368Z,26.44
2019-04-21T16:49:02.202Z,26.37
2019-04-21T16:50:01.869Z,26.44
2019-04-21T16:51:01.879Z,26.44
2019-04-21T16:52:02.601Z,26.37
2019-04-21T16:53:04.069Z,26.37
2019-04-21T16:54:02.206Z,26.37
2019-04-21T16:55:06.797Z,26.37
2019-04-21T16:56:02.965Z,26.31
2019-04-21T16:57:02.112Z,26.25
2019-04-21T16:58:30.725Z,26.06
2019-04-21T16:59:04.007Z,26
2019-04-21T17:00:02.746Z,26
2019-04-21T17:01:24.152Z,26
2019-04-21T17:02:02.971Z,26
2019-04-21T17:03:01.425Z,25.69
2019-04-21T17:04:04.647Z,25.75
2019-04-21T17:05:02.879Z,25.75
2019-04-21T17:06:07.132Z,25.75
2019-04-21T17:07:01.868Z,25.62
2019-04-21T17:08:02.063Z,25.5
2019-04-21T17:09:03.159Z,25.5
2019-04-21T17:10:02.803Z,25.44
2019-04-21T17:11:39.566Z,25.44
2019-04-21T17:12:20.125Z,25.44
2019-04-21T17:13:04.006Z,25.5
2019-04-21T17:14:01.395Z,25.5
2019-04-21T17:21:15.261Z,25.44
2019-04-21T17:22:06.124Z,25.37
2019-04-21T17:23:04.135Z,25.37
2019-04-21T17:24:02.415Z,25.37
2019-04-21T17:25:04.570Z,25.37
2019-04-21T17:26:01.335Z,25.37
2019-04-21T17:27:03.116Z,25.37
2019-04-21T17:28:01.919Z,25.31
2019-04-21T17:29:02.883Z,25.25
2019-04-21T17:30:01.530Z,25.19
2019-04-21T17:31:02.732Z,25.19
2019-04-21T17:32:10.006Z,25.19
2019-04-21T17:33:01.624Z,25.19
2019-04-21T17:34:33.430Z,25.19
2019-04-21T17:35:02.186Z,25.12
2019-04-21T17:36:03.125Z,25.06
2019-04-21T17:37:01.493Z,24.94
2019-04-21T17:38:01.929Z,24.94
2019-04-21T17:39:02.525Z,24.87
2019-04-21T17:40:09.282Z,24.87
2019-04-21T17:43:21.429Z,24.81
2019-04-21T17:44:02.774Z,24.81
2019-04-21T17:45:01.520Z,24.75
2019-04-21T17:46:03.101Z,24.69
2019-04-21T17:48:23.176Z,24.69
2019-04-21T17:49:01.462Z,24.63
2019-04-21T17:50:09.515Z,24.69
2019-04-21T17:51:01.515Z,24.63
2019-04-21T17:52:24.791Z,24.63
2019-04-21T17:53:43.552Z,24.56
2019-04-21T17:55:40.700Z,24.5
2019-04-21T18:13:27.493Z,24
2019-04-21T18:14:01.906Z,24
2019-04-21T18:17:02.698Z,23.94
2019-04-21T18:18:01.289Z,23.87
2019-04-21T18:19:02.785Z,23.87
2019-04-21T18:20:02.061Z,23.87
2019-04-21T18:21:03.028Z,23.81
2019-04-21T18:22:10.962Z,23.75
2019-04-21T18:23:16.214Z,23.75
2019-04-21T18:27:13.524Z,23.75
2019-04-21T18:28:02.577Z,23.69
2019-04-21T18:29:01.510Z,23.62
2019-04-21T18:30:04.620Z,23.69
2019-04-21T18:31:02.637Z,23.62
2019-04-21T18:32:03.052Z,23.56
2019-04-21T18:34:30.611Z,23.5
2019-04-21T18:35:20.901Z,23.44
2019-04-21T18:36:26.585Z,23.44
2019-04-21T18:41:01.636Z,23.31
2019-04-21T18:49:07.335Z,23.06
2019-04-21T18:50:04.338Z,23
2019-04-21T18:56:21.060Z,22.75
2019-04-21T18:58:01.238Z,22.62
2019-04-21T18:59:04.172Z,22.62
2019-04-21T19:01:36.604Z,22.5
2019-04-21T19:02:26.160Z,22.44
2019-04-21T19:03:33.680Z,22.44
2019-04-21T19:04:38.772Z,22.37
2019-04-21T19:05:29.901Z,22.31
2019-04-21T19:35:15.172Z,21
2019-04-21T19:36:03.594Z,20.94
2019-04-21T19:37:47.891Z,20.94
2019-04-21T19:38:54.692Z,20.88
2019-04-21T19:55:06.589Z,20.19
2019-04-21T19:56:01.262Z,20.19
2019-04-21T19:57:01.212Z,20.12
2019-04-21T19:58:01.280Z,20.12
2019-04-21T19:59:01.536Z,20.06
2019-04-21T20:00:15.512Z,20
2019-04-21T20:01:03.479Z,19.94
2019-04-21T20:02:02.885Z,19.94
2019-04-21T20:03:02.662Z,19.87
2019-04-21T20:04:06.446Z,19.81
2019-04-21T20:19:19.692Z,19.56
2019-04-21T20:20:04.326Z,19.5
2019-04-21T20:21:02.143Z,19.5
2019-04-21T20:22:01.179Z,19.5
2019-04-21T20:23:03.214Z,19.44
2019-04-21T20:24:34.021Z,19.5
2019-04-21T20:25:27.101Z,19.5
2019-04-21T20:26:17.367Z,19.5
2019-04-21T20:39:50.150Z,19.44
2019-04-21T21:42:31.832Z,18.56
2019-04-21T21:43:28.721Z,18.56
2019-04-21T21:44:31.787Z,18.56
2019-04-21T21:45:49.896Z,18.5
2019-04-21T21:53:38.270Z,18.31
2019-04-21T21:54:01.136Z,18.31
2019-04-21T21:55:01.862Z,18.25
2019-04-21T21:56:02.965Z,18.25
2019-04-21T21:57:01.077Z,18.19
2019-04-21T21:58:26.350Z,18.19
2019-04-21T21:59:37.948Z,18.19
2019-04-21T22:00:19.334Z,18.19
2019-04-21T22:01:28.010Z,18.12
2019-04-21T22:02:31.859Z,18.12
2019-04-21T22:04:37.844Z,18.06
2019-04-21T22:05:53.317Z,18.06
2019-04-21T22:07:35.146Z,18
2019-04-21T22:08:02.763Z,18.06
2019-04-21T22:09:01.090Z,18
2019-04-21T22:10:04.368Z,17.94
2019-04-21T22:11:01.651Z,17.94
2019-04-21T22:12:14.294Z,17.87
2019-04-21T22:13:47.365Z,17.87
2019-04-21T22:15:33.731Z,17.87
2019-04-21T22:16:24.701Z,17.81
2019-04-21T22:25:41.183Z,17.75
2019-04-21T22:26:01.460Z,17.75
2019-04-21T22:27:01.479Z,17.69
2019-04-21T22:28:02.328Z,17.69
2019-04-21T22:29:01.716Z,17.69
2019-04-21T22:30:33.192Z,17.62
2019-04-21T22:31:35.367Z,17.69
2019-04-21T22:32:36.127Z,17.69
2019-04-21T22:33:23.422Z,17.62
2019-04-21T22:34:34.227Z,17.69
2019-04-21T22:44:02.912Z,17.5
2019-04-21T22:45:01.047Z,17.5
2019-04-21T22:46:01.539Z,17.5
2019-04-21T22:48:30.727Z,17.44
2019-04-21T22:49:19.940Z,17.44
2019-04-21T22:50:04.576Z,17.44
2019-04-21T22:51:11.733Z,17.44
2019-04-21T22:52:32.281Z,17.37
2019-04-21T22:53:19.302Z,17.37
2019-04-21T22:54:01.800Z,17.37
2019-04-21T22:57:39.160Z,17.31
2019-04-21T22:58:05.814Z,17.37
2019-04-21T22:59:28.118Z,17.31
2019-04-21T23:00:22.798Z,17.31
2019-04-21T23:01:11.162Z,17.31
2019-04-21T23:02:33.900Z,17.31
2019-04-21T23:03:31.854Z,17.31
2019-04-21T23:04:15.538Z,17.31
2019-04-21T23:05:11.417Z,17.31
2019-04-21T23:06:37.515Z,17.25
2019-04-21T23:07:26.565Z,17.25
2019-04-21T23:08:11.217Z,17.31
2019-04-21T23:09:01.361Z,17.25
2019-04-21T23:10:01.298Z,17.25
2019-04-21T23:11:19.601Z,17.25
2019-04-21T23:12:05.347Z,17.25
2019-04-21T23:13:30.730Z,17.19
2019-04-21T23:14:19.089Z,17.19
2019-04-21T23:15:44.257Z,17.19
2019-04-21T23:16:19.321Z,17.19
2019-04-21T23:33:24.999Z,17.12
2019-04-21T23:34:02.612Z,17.06
2019-04-21T23:37:33.917Z,17.06
2019-04-21T23:38:28.163Z,17.06
2019-04-21T23:39:15.530Z,17
2019-04-21T23:40:29.243Z,17
2019-04-21T23:41:13.230Z,17
2019-04-21T23:42:06.750Z,17
2019-04-21T23:43:34.715Z,17
2019-04-21T23:44:22.292Z,17
2019-04-21T23:45:12.493Z,16.94
2019-04-21T23:46:37.293Z,16.94
2019-04-21T23:52:19.923Z,16.94
2019-04-21T23:53:01.878Z,16.87
2019-04-21T23:54:02.063Z,16.87
2019-04-21T23:55:01.269Z,16.81
2019-04-21T23:56:01.572Z,16.81
2019-04-21T23:57:46.514Z,16.81
2019-04-21T23:58:36.676Z,16.81
2019-04-21T23:59:18.189Z,16.75
